Time;durP1;ratioP1;P1;durP2;ratioP2;P2;SDS_P1;SDS_P2;PMS_P1;PMS_P2;Temp;Humidity;BMP_temperature;BMP_pressure;BME280_temperature;BME280_humidity;BME280_pressure;Samples;Min_cycle;Max_cycle;Signal;HPM_P1;HPM_P2
2023/01/23 00:01:48;;;;;;;14.27;7.70;;;3.70;97.20;;;;;;5050947;28;20541;-89
2023/01/23 00:04:15;;;;;;;12.88;7.10;;;3.70;97.10;;;;;;5066155;28;20950;-90
2023/01/23 00:06:41;;;;;;;12.88;7.13;;;3.70;97.10;;;;;;5050839;28;20446;-91
2023/01/23 00:09:07;;;;;;;16.38;7.78;;;3.70;97.10;;;;;;5066332;28;20438;-90
2023/01/23 00:11:33;;;;;;;15.23;8.70;;;3.70;97.20;;;;;;5050723;28;20435;-90
2023/01/23 00:14:00;;;;;;;12.73;7.22;;;3.70;97.20;;;;;;5066800;28;20408;-88
2023/01/23 00:16:28;;;;;;;13.80;6.70;;;3.80;97.10;;;;;;5050196;28;20437;-91
2023/01/23 00:18:54;;;;;;;12.35;6.57;;;3.70;97.10;;;;;;5050388;28;20970;-90
2023/01/23 00:21:22;;;;;;;11.40;5.63;;;3.70;97.10;;;;;;5049480;28;20542;-92
2023/01/23 00:23:51;;;;;;;10.48;5.93;;;3.70;97.10;;;;;;5050388;28;20444;-89
2023/01/23 00:26:19;;;;;;;14.02;6.68;;;3.70;97.10;;;;;;5049452;28;20425;-89
2023/01/23 00:28:46;;;;;;;12.55;6.32;;;3.90;97.00;;;;;;5050701;28;20407;-90
2023/01/23 00:31:19;;;;;;;11.70;6.30;;;3.70;96.90;;;;;;5066812;28;20944;-88
2023/01/23 00:33:45;;;;;;;13.23;5.70;;;3.70;97.00;;;;;;5050153;28;20399;-88
2023/01/23 00:36:13;;;;;;;11.35;5.75;;;3.70;96.90;;;;;;5049921;28;20412;-89
2023/01/23 00:38:39;;;;;;;12.20;6.25;;;3.70;96.90;;;;;;5049501;28;20426;-91
2023/01/23 00:41:04;;;;;;;12.93;6.40;;;3.70;96.80;;;;;;5067031;28;20520;-90
2023/01/23 00:43:31;;;;;;;12.48;6.68;;;3.70;96.90;;;;;;5048776;28;20435;-91
2023/01/23 00:45:56;;;;;;;12.73;7.28;;;3.70;96.90;;;;;;5066994;28;20408;-89
2023/01/23 00:48:22;;;;;;;11.25;6.63;;;3.70;97.00;;;;;;5065432;28;20958;-90
2023/01/23 00:50:48;;;;;;;10.40;6.45;;;3.90;96.90;;;;;;5066235;28;20473;-90
2023/01/23 00:53:14;;;;;;;10.77;6.38;;;3.70;96.80;;;;;;5049565;28;20408;-90
2023/01/23 00:55:40;;;;;;;11.77;6.63;;;3.70;96.90;;;;;;5049108;28;20408;-90
2023/01/23 00:58:07;;;;;;;12.25;7.00;;;3.70;96.80;;;;;;5049509;28;20408;-90
2023/01/23 01:00:34;;;;;;;13.93;7.57;;;3.70;96.80;;;;;;5048531;28;20530;-90
2023/01/23 01:02:59;;;;;;;15.32;9.02;;;3.70;96.70;;;;;;5049703;28;20434;-91
2023/01/23 01:05:26;;;;;;;13.52;7.80;;;3.70;96.90;;;;;;5049262;28;20400;-90
2023/01/23 01:07:51;;;;;;;15.55;7.95;;;3.70;96.90;;;;;;5049931;28;20411;-89
2023/01/23 01:10:17;;;;;;;15.63;7.80;;;3.70;96.90;;;;;;5048839;28;20408;-89
2023/01/23 01:12:42;;;;;;;10.50;6.73;;;3.70;96.90;;;;;;5048826;28;20902;-89
2023/01/23 01:15:09;;;;;;;11.90;7.70;;;3.70;96.90;;;;;;5049186;28;20404;-89
2023/01/23 01:17:35;;;;;;;14.30;7.50;;;3.70;96.70;;;;;;5048354;28;20408;-90
2023/01/23 01:20:01;;;;;;;11.95;7.38;;;3.70;96.80;;;;;;5049558;28;20439;-89
2023/01/23 01:22:27;;;;;;;12.70;6.95;;;3.70;96.80;;;;;;5048573;28;20430;-90
2023/01/23 01:24:52;;;;;;;13.60;6.90;;;3.70;96.80;;;;;;5049554;28;20416;-90
2023/01/23 01:27:18;;;;;;;13.93;7.82;;;3.70;96.80;;;;;;5048082;28;20411;-90
2023/01/23 01:29:43;;;;;;;15.87;8.90;;;3.70;96.80;;;;;;5049362;28;20403;-90
2023/01/23 01:32:09;;;;;;;12.87;7.83;;;3.70;96.90;;;;;;5049120;28;20918;-89
2023/01/23 01:34:35;;;;;;;14.80;8.60;;;3.60;96.90;;;;;;5065565;28;20435;-90
2023/01/23 01:37:01;;;;;;;12.15;7.50;;;3.70;96.90;;;;;;5048938;28;20993;-90
2023/01/23 01:39:26;;;;;;;13.40;8.60;;;3.60;96.90;;;;;;5048291;28;20411;-91
2023/01/23 01:41:52;;;;;;;16.50;9.00;;;3.70;97.00;;;;;;5066346;28;20419;-91
2023/01/23 01:44:20;;;;;;;13.20;8.68;;;3.70;97.00;;;;;;5064381;28;20431;-89
2023/01/23 01:46:47;;;;;;;13.75;8.68;;;3.60;96.80;;;;;;5049897;28;20797;-90
2023/01/23 01:49:28;;;;;;;15.05;8.73;;;3.60;96.90;;;;;;5064819;28;20403;-90
2023/01/23 01:52:07;;;;;;;14.32;8.45;;;3.60;97.00;;;;;;5048580;28;20415;-91
2023/01/23 01:54:47;;;;;;;14.18;8.65;;;3.70;97.10;;;;;;5049595;28;20407;-91
2023/01/23 01:57:22;;;;;;;13.38;8.45;;;3.60;97.00;;;;;;5047693;28;20756;-91
2023/01/23 01:59:58;;;;;;;13.95;8.52;;;3.60;96.80;;;;;;5065430;28;20775;-90
2023/01/23 02:02:39;;;;;;;14.38;8.57;;;3.60;96.90;;;;;;5048659;28;20418;-88
2023/01/23 02:05:09;;;;;;;14.90;8.38;;;3.60;97.00;;;;;;5059107;28;20415;-90
2023/01/23 02:07:44;;;;;;;13.88;8.70;;;3.60;96.90;;;;;;5049342;28;20415;-89
2023/01/23 02:10:11;;;;;;;13.75;8.50;;;3.60;97.00;;;;;;5050036;28;20498;-90
2023/01/23 02:12:37;;;;;;;12.52;8.27;;;3.60;97.00;;;;;;5053345;28;20416;-89
2023/01/23 02:15:06;;;;;;;14.93;8.23;;;3.60;96.90;;;;;;5068712;28;20415;-89
2023/01/23 02:17:34;;;;;;;13.98;8.50;;;3.60;96.90;;;;;;5069336;28;20430;-91
2023/01/23 02:20:05;;;;;;;12.77;8.88;;;3.60;96.90;;;;;;5069630;28;20505;-89
2023/01/23 02:22:56;;;;;;;14.50;9.73;;;3.60;97.00;;;;;;5051912;28;20497;-90
2023/01/23 02:25:34;;;;;;;12.27;9.60;;;3.50;97.00;;;;;;5069709;28;20483;-90
2023/01/23 02:28:01;;;;;;;13.77;9.67;;;3.50;97.00;;;;;;5051862;28;20783;-90
2023/01/23 02:30:27;;;;;;;13.95;10.50;;;3.50;97.00;;;;;;5069208;28;20467;-90
2023/01/23 02:32:52;;;;;;;14.15;10.32;;;3.50;96.90;;;;;;5068756;28;20949;-90
2023/01/23 02:35:29;;;;;;;13.68;9.80;;;3.50;97.10;;;;;;5051624;28;20411;-88
2023/01/23 02:37:59;;;;;;;12.98;9.98;;;3.50;97.00;;;;;;5068142;28;20404;-90
2023/01/23 02:40:35;;;;;;;12.77;10.27;;;3.50;97.10;;;;;;5050395;28;20917;-89
2023/01/23 02:43:03;;;;;;;14.38;10.10;;;3.60;97.20;;;;;;5052106;28;20431;-91
2023/01/23 02:45:30;;;;;;;13.85;9.63;;;3.50;97.20;;;;;;5050598;28;20397;-91
2023/01/23 02:47:56;;;;;;;14.30;9.93;;;3.60;97.20;;;;;;5051038;28;20552;-91
2023/01/23 02:50:21;;;;;;;15.85;9.13;;;3.40;97.10;;;;;;5051968;28;20416;-90
2023/01/23 02:52:49;;;;;;;12.55;9.35;;;3.50;97.20;;;;;;5051608;28;20396;-91
2023/01/23 02:55:16;;;;;;;13.55;10.18;;;3.40;97.10;;;;;;5052190;28;20477;-91
2023/01/23 02:57:44;;;;;;;12.93;9.57;;;3.50;97.20;;;;;;5050958;28;20403;-91
2023/01/23 03:00:18;;;;;;;13.20;9.48;;;3.50;97.30;;;;;;5052222;28;20404;-90
2023/01/23 03:02:47;;;;;;;15.07;9.98;;;3.50;97.30;;;;;;5068024;28;20518;-90
2023/01/23 03:05:13;;;;;;;20.58;15.23;;;3.50;97.30;;;;;;5068493;28;20490;-90
2023/01/23 03:07:38;;;;;;;25.10;19.40;;;3.50;97.20;;;;;;5068688;28;20491;-91
2023/01/23 03:10:06;;;;;;;29.97;23.03;;;3.50;97.20;;;;;;5067739;28;20447;-91
2023/01/23 03:12:32;;;;;;;22.80;16.20;;;3.50;97.20;;;;;;5051608;28;20400;-89
2023/01/23 03:14:58;;;;;;;17.57;11.87;;;3.50;97.10;;;;;;5050590;28;20768;-90
2023/01/23 03:17:24;;;;;;;17.13;12.55;;;3.50;97.00;;;;;;5068855;28;20396;-90
2023/01/23 03:19:50;;;;;;;16.63;11.18;;;3.50;97.00;;;;;;5050103;28;20404;-90
2023/01/23 03:22:16;;;;;;;13.75;9.32;;;3.60;97.10;;;;;;5051653;28;20439;-89
2023/01/23 03:24:41;;;;;;;14.33;8.80;;;3.60;97.00;;;;;;5051243;28;20458;-90
2023/01/23 03:27:07;;;;;;;13.93;9.10;;;3.60;97.00;;;;;;5067535;28;20437;-90
2023/01/23 03:32:18;;;;;;;11.90;8.50;;;3.60;97.00;;;;;;5067029;28;20408;-91
2023/01/23 03:34:43;;;;;;;12.80;8.82;;;3.50;97.00;;;;;;5051826;28;20457;-91
2023/01/23 03:37:11;;;;;;;12.85;8.45;;;3.50;97.00;;;;;;5050687;28;20408;-90
2023/01/23 03:42:21;;;;;;;13.50;8.32;;;3.50;97.10;;;;;;5067892;28;20400;-89
2023/01/23 03:44:48;;;;;;;14.35;9.15;;;3.40;97.10;;;;;;5050475;28;20403;-90
2023/01/23 03:47:13;;;;;;;12.82;8.93;;;3.40;97.20;;;;;;5068151;28;20404;-91
2023/01/23 03:49:39;;;;;;;14.33;9.23;;;3.40;97.30;;;;;;5049908;28;20422;-89
2023/01/23 03:52:05;;;;;;;13.25;8.77;;;3.40;97.40;;;;;;5051415;28;20890;-90
2023/01/23 03:54:30;;;;;;;12.77;8.18;;;3.40;97.40;;;;;;5049819;28;20415;-90
2023/01/23 03:56:56;;;;;;;13.93;8.93;;;3.40;97.40;;;;;;5050972;28;20407;-90
2023/01/23 03:59:22;;;;;;;11.43;8.10;;;3.40;97.50;;;;;;5050375;28;20469;-90
2023/01/23 04:01:47;;;;;;;11.93;8.30;;;3.40;97.40;;;;;;5050220;28;20415;-90
2023/01/23 04:04:13;;;;;;;11.65;8.27;;;3.40;97.30;;;;;;5049930;28;20430;-90
2023/01/23 04:06:38;;;;;;;10.90;7.80;;;3.40;97.30;;;;;;5050086;28;20400;-90
2023/01/23 04:09:04;;;;;;;10.70;7.40;;;3.40;97.30;;;;;;5050592;28;20443;-90
2023/01/23 04:11:30;;;;;;;10.93;7.60;;;3.50;97.20;;;;;;5050109;28;20400;-89
2023/01/23 04:13:56;;;;;;;11.27;7.45;;;3.50;97.20;;;;;;5050715;28;20396;-90
2023/01/23 04:16:22;;;;;;;9.30;7.10;;;3.50;97.20;;;;;;5049531;28;20403;-89
2023/01/23 04:18:49;;;;;;;11.20;7.30;;;3.50;97.10;;;;;;5066909;28;20411;-90
2023/01/23 04:21:15;;;;;;;11.90;7.50;;;3.50;97.10;;;;;;5050144;28;20400;-90
2023/01/23 04:23:40;;;;;;;11.32;8.32;;;3.50;97.10;;;;;;5049524;28;20427;-90
2023/01/23 04:26:06;;;;;;;11.68;8.75;;;3.50;97.10;;;;;;5050597;28;20411;-89
2023/01/23 04:28:32;;;;;;;12.57;7.90;;;3.50;97.20;;;;;;5049223;28;20850;-90
2023/01/23 04:30:57;;;;;;;11.43;7.63;;;3.50;97.10;;;;;;5050050;28;20407;-90
2023/01/23 04:33:23;;;;;;;10.40;7.50;;;3.50;97.10;;;;;;5064870;28;20403;-90
2023/01/23 04:36:04;;;;;;;12.63;8.13;;;3.50;97.10;;;;;;5050030;28;20438;-91
2023/01/23 04:38:30;;;;;;;14.02;10.02;;;3.50;97.10;;;;;;5066365;28;20416;-89
2023/01/23 04:40:56;;;;;;;14.20;9.15;;;3.50;97.10;;;;;;5049632;28;20399;-89
2023/01/23 04:43:21;;;;;;;17.85;10.18;;;3.50;97.10;;;;;;5049328;28;20443;-91
2023/01/23 04:45:50;;;;;;;15.52;10.48;;;3.50;97.10;;;;;;5049084;28;20497;-90
2023/01/23 04:48:15;;;;;;;15.70;11.00;;;3.40;97.10;;;;;;5049637;28;20462;-91
2023/01/23 04:50:41;;;;;;;13.95;10.23;;;3.50;97.10;;;;;;5065106;28;20412;-90
2023/01/23 04:53:07;;;;;;;12.53;9.30;;;3.40;97.20;;;;;;5066382;28;20499;-90
2023/01/23 04:55:32;;;;;;;10.43;8.10;;;3.40;97.30;;;;;;5066356;28;20400;-89
2023/01/23 04:57:58;;;;;;;15.07;9.30;;;3.40;97.20;;;;;;5049262;28;20460;-90
2023/01/23 05:00:24;;;;;;;15.33;10.03;;;3.50;97.30;;;;;;5049311;28;20408;-90
2023/01/23 05:02:50;;;;;;;12.27;8.23;;;3.40;97.30;;;;;;5048750;28;20419;-89
2023/01/23 05:05:16;;;;;;;11.40;8.17;;;3.60;97.30;;;;;;5066106;28;20451;-89
2023/01/23 05:07:43;;;;;;;12.10;7.65;;;3.40;97.30;;;;;;5065161;28;20403;-90
2023/01/23 05:10:09;;;;;;;12.93;8.40;;;3.50;97.30;;;;;;5049895;28;20407;-89
2023/01/23 05:12:35;;;;;;;12.07;7.90;;;3.50;97.20;;;;;;5048611;28;20404;-90
2023/01/23 05:15:00;;;;;;;13.32;8.93;;;3.40;97.10;;;;;;5065946;28;20433;-89
2023/01/23 05:17:26;;;;;;;14.33;8.93;;;3.40;97.30;;;;;;5065952;28;20412;-90
2023/01/23 05:19:52;;;;;;;13.20;8.50;;;3.50;97.40;;;;;;5065379;28;20415;-91
2023/01/23 05:22:18;;;;;;;14.98;9.13;;;3.40;97.40;;;;;;5049321;28;20431;-91
2023/01/23 05:24:44;;;;;;;14.05;9.85;;;3.40;97.40;;;;;;5048055;28;20462;-90
2023/01/23 05:27:11;;;;;;;15.93;9.90;;;3.40;97.60;;;;;;5049648;28;20897;-89
2023/01/23 05:29:37;;;;;;;12.77;9.82;;;3.50;97.70;;;;;;5064784;28;20431;-89
2023/01/23 05:32:03;;;;;;;14.38;9.93;;;3.40;97.60;;;;;;5049869;28;20423;-90
2023/01/23 05:34:29;;;;;;;16.42;11.30;;;3.40;97.50;;;;;;5048334;28;20455;-90
2023/01/23 05:36:54;;;;;;;16.35;10.77;;;3.40;97.70;;;;;;5048472;28;20408;-89
2023/01/23 05:39:21;;;;;;;16.52;11.63;;;3.50;97.80;;;;;;5048911;28;20412;-89
2023/01/23 05:41:46;;;;;;;19.33;11.45;;;3.50;97.90;;;;;;5065234;28;20865;-89
2023/01/23 05:44:12;;;;;;;16.70;11.38;;;3.40;97.80;;;;;;5048641;28;20473;-90
2023/01/23 05:46:38;;;;;;;15.50;11.43;;;3.40;97.90;;;;;;5064812;28;20474;-91
2023/01/23 05:49:03;;;;;;;17.13;11.63;;;3.40;97.90;;;;;;5049736;28;20404;-90
2023/01/23 05:51:32;;;;;;;18.58;11.63;;;3.40;97.90;;;;;;5064718;28;20431;-89
2023/01/23 05:54:02;;;;;;;15.57;11.57;;;3.30;98.00;;;;;;5065629;28;20412;-90
2023/01/23 05:56:27;;;;;;;19.80;12.65;;;3.40;98.10;;;;;;5065365;28;21116;-89
2023/01/23 05:58:53;;;;;;;14.98;11.32;;;3.30;98.10;;;;;;5048260;28;20860;-91
2023/01/23 06:01:20;;;;;;;16.95;12.38;;;3.30;98.00;;;;;;5066044;28;20548;-90
2023/01/23 06:03:46;;;;;;;18.67;11.55;;;3.30;98.30;;;;;;5048024;28;20424;-90
2023/01/23 06:06:12;;;;;;;18.30;12.70;;;3.30;98.00;;;;;;5066097;28;20400;-90
2023/01/23 06:08:38;;;;;;;17.88;11.80;;;3.30;98.00;;;;;;5047613;28;20412;-91
2023/01/23 06:11:04;;;;;;;17.70;12.55;;;3.30;98.00;;;;;;5065927;28;20410;-90
2023/01/23 06:13:30;;;;;;;18.23;12.98;;;3.30;98.00;;;;;;5048285;28;20404;-89
2023/01/23 06:15:56;;;;;;;20.83;13.57;;;3.30;98.00;;;;;;5048236;28;20423;-89
2023/01/23 06:18:22;;;;;;;17.95;13.20;;;3.30;98.00;;;;;;5065156;28;20487;-89
2023/01/23 06:20:48;;;;;;;18.50;13.53;;;3.30;97.90;;;;;;5047720;28;20556;-89
2023/01/23 06:23:14;;;;;;;20.00;13.10;;;3.30;97.80;;;;;;5049018;28;20561;-90
2023/01/23 06:25:40;;;;;;;17.70;13.53;;;3.30;97.70;;;;;;5064238;28;20404;-88
2023/01/23 06:28:06;;;;;;;20.73;13.80;;;3.30;97.80;;;;;;5049000;28;20418;-89
2023/01/23 06:30:32;;;;;;;19.13;13.85;;;3.30;97.80;;;;;;5047366;28;20407;-88
2023/01/23 06:32:57;;;;;;;20.13;13.70;;;3.40;97.80;;;;;;5048316;28;20665;-90
2023/01/23 06:35:23;;;;;;;19.02;14.27;;;3.30;97.80;;;;;;5048045;28;20404;-90
2023/01/23 06:37:49;;;;;;;19.63;14.47;;;3.30;97.80;;;;;;5064894;28;20825;-89
2023/01/23 06:40:15;;;;;;;20.97;13.80;;;3.30;97.70;;;;;;5065014;28;20424;-88
2023/01/23 06:42:42;;;;;;;22.60;14.90;;;3.30;97.70;;;;;;5064023;28;20461;-89
2023/01/23 06:45:09;;;;;;;22.45;15.95;;;3.30;97.80;;;;;;5065141;28;20405;-90
2023/01/23 06:47:37;;;;;;;22.67;15.75;;;3.30;97.90;;;;;;5064349;28;20494;-89
2023/01/23 06:50:04;;;;;;;20.88;15.02;;;3.30;97.90;;;;;;5048158;28;20499;-90
2023/01/23 06:52:30;;;;;;;22.55;15.35;;;3.30;97.80;;;;;;5047508;28;20415;-89
2023/01/23 06:54:55;;;;;;;20.65;15.20;;;3.30;97.80;;;;;;5064598;28;20408;-89
2023/01/23 06:57:21;;;;;;;21.95;15.60;;;3.30;97.70;;;;;;5068425;28;20502;-89
2023/01/23 06:59:47;;;;;;;21.20;16.33;;;3.20;97.80;;;;;;5067448;28;20410;-88
2023/01/23 07:02:13;;;;;;;26.83;18.65;;;3.30;97.80;;;;;;5068325;28;20479;-90
2023/01/23 07:04:39;;;;;;;26.05;18.60;;;3.20;97.80;;;;;;5067231;28;20438;-88
2023/01/23 07:07:04;;;;;;;23.10;16.65;;;3.20;97.80;;;;;;5052582;28;20487;-90
2023/01/23 07:09:30;;;;;;;20.07;15.50;;;3.30;97.70;;;;;;5051097;28;20408;-90
2023/01/23 07:11:56;;;;;;;21.10;16.07;;;3.50;97.90;;;;;;5068453;28;20455;-90
2023/01/23 07:14:21;;;;;;;19.97;15.03;;;3.30;97.80;;;;;;5067989;28;20580;-88
2023/01/23 07:16:47;;;;;;;21.80;15.07;;;3.50;98.00;;;;;;5067410;28;20453;-89
2023/01/23 07:19:13;;;;;;;21.25;15.35;;;3.30;97.80;;;;;;5051423;28;20740;-89
2023/01/23 07:21:38;;;;;;;22.27;15.37;;;3.30;97.80;;;;;;5067269;28;20903;-89
2023/01/23 07:24:04;;;;;;;23.17;15.27;;;3.20;97.70;;;;;;5051645;28;20949;-90
2023/01/23 07:26:30;;;;;;;21.48;15.05;;;3.30;97.80;;;;;;5066714;28;20415;-89
2023/01/23 07:28:55;;;;;;;23.00;15.65;;;3.30;97.80;;;;;;5068197;28;20400;-89
2023/01/23 07:31:21;;;;;;;23.57;15.70;;;3.20;97.80;;;;;;5050104;28;20408;-88
2023/01/23 07:33:47;;;;;;;24.63;15.90;;;3.20;97.80;;;;;;5051196;28;20490;-89
2023/01/23 07:36:17;;;;;;;23.30;15.95;;;3.20;98.10;;;;;;5051132;28;20899;-90
2023/01/23 07:38:43;;;;;;;24.17;16.33;;;3.20;97.80;;;;;;5067311;28;21028;-89
2023/01/23 07:41:09;;;;;;;25.50;17.20;;;3.20;97.80;;;;;;5051117;28;20483;-87
2023/01/23 07:43:34;;;;;;;23.47;16.60;;;3.20;98.30;;;;;;5050198;28;20424;-90
2023/01/23 07:46:01;;;;;;;21.97;16.13;;;3.20;98.00;;;;;;5051427;28;20419;-89
2023/01/23 07:48:28;;;;;;;23.13;16.00;;;3.20;98.00;;;;;;5050633;28;20411;-89
2023/01/23 07:50:54;;;;;;;23.25;15.77;;;3.20;97.90;;;;;;5050628;28;20418;-90
2023/01/23 07:53:19;;;;;;;22.25;15.85;;;3.20;97.90;;;;;;5050975;28;20403;-90
2023/01/23 07:55:45;;;;;;;20.17;15.50;;;3.30;97.90;;;;;;5050134;28;20412;-89
2023/01/23 07:58:11;;;;;;;21.80;15.82;;;3.20;98.10;;;;;;5067153;28;20469;-90
2023/01/23 08:00:37;;;;;;;19.87;14.80;;;3.30;98.00;;;;;;5049625;28;20400;-89
2023/01/23 08:03:02;;;;;;;23.85;15.75;;;3.30;97.90;;;;;;5050986;28;20810;-90
2023/01/23 08:05:28;;;;;;;21.97;15.00;;;3.30;97.80;;;;;;5066240;28;20965;-90
2023/01/23 08:07:54;;;;;;;22.63;16.67;;;3.30;97.80;;;;;;5068052;28;20797;-90
2023/01/23 08:10:20;;;;;;;21.85;16.70;;;3.30;97.90;;;;;;5050083;28;20400;-90
2023/01/23 08:12:46;;;;;;;22.50;16.00;;;3.30;97.90;;;;;;5050354;28;20492;-91
2023/01/23 08:15:12;;;;;;;22.37;16.10;;;3.30;98.00;;;;;;5050613;28;20457;-90
2023/01/23 08:17:37;;;;;;;23.90;16.33;;;3.40;98.10;;;;;;5066502;28;20400;-89
2023/01/23 08:20:03;;;;;;;23.73;15.83;;;3.40;98.10;;;;;;5067025;28;20464;-90
2023/01/23 08:22:29;;;;;;;24.80;16.77;;;3.40;98.00;;;;;;5066126;28;20446;-90
2023/01/23 08:24:54;;;;;;;25.17;16.25;;;3.40;98.00;;;;;;5067589;28;20903;-88
2023/01/23 08:27:20;;;;;;;24.50;16.73;;;3.50;97.90;;;;;;5049152;28;20430;-88
2023/01/23 08:29:46;;;;;;;23.08;15.90;;;3.50;97.90;;;;;;5066864;28;20411;-89
2023/01/23 08:32:12;;;;;;;25.63;16.37;;;3.50;97.90;;;;;;5049903;28;20501;-91
2023/01/23 08:34:38;;;;;;;27.27;17.07;;;3.70;98.00;;;;;;5049513;28;20411;-89
2023/01/23 08:37:03;;;;;;;23.50;16.00;;;3.50;98.00;;;;;;5050566;28;20497;-89
2023/01/23 08:39:29;;;;;;;23.03;15.30;;;3.60;97.80;;;;;;5049306;28;20400;-90
2023/01/23 08:41:54;;;;;;;22.95;17.17;;;3.60;97.80;;;;;;5050281;28;20399;-90
2023/01/23 08:44:20;;;;;;;21.57;15.83;;;3.60;97.80;;;;;;5048565;28;20873;-88
2023/01/23 08:46:46;;;;;;;20.77;15.57;;;3.60;97.80;;;;;;5067297;28;20942;-90
2023/01/23 08:49:12;;;;;;;22.75;16.17;;;3.70;97.60;;;;;;5065774;28;20400;-89
2023/01/23 08:51:38;;;;;;;21.47;15.07;;;3.70;97.70;;;;;;5066131;28;20434;-89
2023/01/23 08:54:04;;;;;;;19.93;15.20;;;3.70;97.80;;;;;;5066129;28;20408;-88
2023/01/23 08:56:30;;;;;;;21.08;15.90;;;3.70;97.60;;;;;;5049357;28;20924;-89
2023/01/23 08:58:56;;;;;;;20.08;16.30;;;3.80;97.70;;;;;;5049687;28;20411;-90
2023/01/23 09:01:24;;;;;;;24.92;19.85;;;3.80;97.60;;;;;;5048744;28;20407;-89
2023/01/23 09:03:51;;;;;;;23.60;17.73;;;3.80;97.50;;;;;;5049857;28;20424;-90
2023/01/23 09:06:18;;;;;;;23.20;17.70;;;3.90;97.50;;;;;;5065469;28;20416;-90
2023/01/23 09:08:44;;;;;;;21.40;16.52;;;3.90;97.40;;;;;;5049786;28;20414;-90
2023/01/23 09:11:11;;;;;;;22.23;15.45;;;4.10;97.40;;;;;;5065794;28;20396;-89
2023/01/23 09:13:37;;;;;;;17.90;14.82;;;4.00;97.20;;;;;;5049076;28;20411;-89
2023/01/23 09:16:04;;;;;;;19.70;14.93;;;4.00;97.10;;;;;;5065700;28;20683;-90
2023/01/23 09:18:30;;;;;;;19.02;14.43;;;3.90;96.90;;;;;;5047602;28;20403;-90
2023/01/23 09:20:56;;;;;;;21.97;16.20;;;4.00;96.80;;;;;;5066362;28;20902;-89
2023/01/23 09:23:23;;;;;;;18.70;14.13;;;4.10;96.90;;;;;;5047761;28;20442;-88
2023/01/23 09:25:48;;;;;;;18.13;13.77;;;4.10;96.50;;;;;;5049144;28;21017;-89
2023/01/23 09:28:14;;;;;;;15.73;12.52;;;4.10;96.30;;;;;;5065560;28;20494;-88
2023/01/23 09:30:40;;;;;;;15.43;13.10;;;4.10;96.20;;;;;;5048862;28;20902;-89
2023/01/23 09:33:05;;;;;;;17.63;13.03;;;4.10;96.40;;;;;;5065315;28;20797;-90
2023/01/23 09:35:32;;;;;;;16.57;13.43;;;4.40;96.30;;;;;;5048591;28;20469;-91
2023/01/23 09:38:00;;;;;;;17.80;13.05;;;4.20;96.30;;;;;;5065836;28;20464;-89
2023/01/23 09:40:29;;;;;;;15.57;11.57;;;4.20;96.30;;;;;;5048107;28;20451;-89
2023/01/23 09:42:58;;;;;;;14.85;12.23;;;4.30;95.80;;;;;;5049614;28;20427;-89
2023/01/23 09:45:26;;;;;;;15.02;11.80;;;4.30;96.00;;;;;;5064905;28;20494;-89
2023/01/23 09:48:21;;;;;;;15.10;11.88;;;4.40;95.70;;;;;;5065893;28;20412;-89
2023/01/23 09:51:15;;;;;;;14.63;10.73;;;4.30;95.90;;;;;;5056415;28;20407;-91
2023/01/23 09:53:41;;;;;;;14.90;11.57;;;4.40;95.40;;;;;;5045117;28;20414;-88
2023/01/23 09:56:30;;;;;;;13.00;10.68;;;4.60;95.90;;;;;;5065822;28;20403;-89
2023/01/23 09:59:13;;;;;;;13.00;11.10;;;4.50;95.60;;;;;;5048674;28;20423;-89
2023/01/23 10:01:39;;;;;;;12.02;9.48;;;4.50;95.60;;;;;;5064667;28;20443;-90
2023/01/23 10:04:05;;;;;;;13.82;9.57;;;4.50;95.00;;;;;;5049041;28;20438;-89
2023/01/23 10:06:44;;;;;;;11.95;9.90;;;4.50;94.80;;;;;;5047727;28;20820;-91
2023/01/23 10:09:24;;;;;;;9.85;8.82;;;4.60;94.90;;;;;;5049074;28;20407;-89
2023/01/23 10:11:50;;;;;;;10.65;8.23;;;4.60;94.70;;;;;;5065259;28;20412;-89
2023/01/23 10:14:40;;;;;;;9.07;7.60;;;4.70;95.00;;;;;;5064792;28;20408;-89
2023/01/23 10:17:44;;;;;;;9.02;7.38;;;4.80;94.20;;;;;;5048897;28;20804;-89
2023/01/23 10:20:31;;;;;;;8.55;7.50;;;4.80;94.10;;;;;;5047947;28;20407;-91
2023/01/23 10:23:22;;;;;;;8.73;7.82;;;4.90;94.00;;;;;;5048253;28;20428;-90
2023/01/23 10:25:48;;;;;;;8.77;6.80;;;5.00;94.20;;;;;;5065530;28;20415;-88
2023/01/23 10:28:36;;;;;;;6.47;5.65;;;5.00;93.80;;;;;;5047765;28;20411;-89
2023/01/23 10:31:09;;;;;;;7.60;5.15;;;5.10;93.00;;;;;;5066848;28;20422;-91
2023/01/23 10:34:01;;;;;;;7.00;5.72;;;5.10;92.60;;;;;;5051987;28;20403;-90
2023/01/23 10:36:54;;;;;;;7.10;5.95;;;5.20;93.10;;;;;;5051882;28;21005;-90
2023/01/23 10:39:33;;;;;;;6.15;5.50;;;5.20;92.90;;;;;;5052386;28;20914;-89
2023/01/23 10:41:59;;;;;;;6.10;4.90;;;5.30;92.70;;;;;;5051577;28;20759;-88
2023/01/23 10:44:25;;;;;;;5.93;4.27;;;5.40;92.00;;;;;;5068236;28;20423;-90
2023/01/23 10:46:58;;;;;;;4.72;4.20;;;5.40;91.70;;;;;;5051548;28;20410;-91
2023/01/23 10:49:29;;;;;;;4.80;4.10;;;5.40;91.30;;;;;;5067963;28;20445;-91
2023/01/23 10:51:54;;;;;;;4.73;4.33;;;5.50;91.20;;;;;;5052239;28;20408;-90
2023/01/23 10:54:23;;;;;;;5.23;3.90;;;5.50;90.70;;;;;;5050966;28;20411;-89
2023/01/23 10:57:22;;;;;;;4.50;4.07;;;5.60;90.70;;;;;;5052186;28;20403;-89
2023/01/23 11:00:02;;;;;;;3.40;2.67;;;5.60;90.50;;;;;;5045825;28;20411;-89
2023/01/23 11:02:31;;;;;;;2.70;2.23;;;5.60;88.90;;;;;;5067528;28;20415;-90
2023/01/23 11:04:57;;;;;;;2.38;1.33;;;5.60;88.20;;;;;;5068760;28;20518;-89
2023/01/23 11:07:35;;;;;;;1.25;0.60;;;5.70;87.80;;;;;;5050980;28;20404;-88
2023/01/23 11:10:21;;;;;;;1.55;1.00;;;5.70;84.40;;;;;;5066296;28;20465;-90
2023/01/23 11:12:53;;;;;;;2.40;2.10;;;5.70;86.30;;;;;;5051003;28;20407;-89
2023/01/23 11:15:28;;;;;;;2.13;1.25;;;5.70;86.80;;;;;;5050692;28;20421;-89
2023/01/23 11:17:56;;;;;;;2.28;1.60;;;5.70;82.60;;;;;;5051505;28;20469;-89
2023/01/23 11:20:39;;;;;;;3.40;2.08;;;5.60;81.70;;;;;;5067322;28;20453;-90
2023/01/23 11:23:08;;;;;;;1.88;1.33;;;5.60;84.20;;;;;;5051020;28;21001;-90
2023/01/23 11:25:45;;;;;;;1.98;1.50;;;5.50;82.50;;;;;;5051229;28;20830;-90
2023/01/23 11:28:22;;;;;;;2.85;2.20;;;5.50;83.00;;;;;;5050695;28;20453;-88
2023/01/23 11:30:49;;;;;;;3.22;2.17;;;5.50;83.20;;;;;;5051026;28;20411;-89
2023/01/23 11:33:24;;;;;;;2.40;2.17;;;5.50;83.30;;;;;;5050060;28;20828;-90
2023/01/23 11:36:10;;;;;;;2.65;2.45;;;5.40;82.90;;;;;;5068218;28;20775;-90
2023/01/23 11:38:52;;;;;;;3.08;2.70;;;5.40;84.00;;;;;;5067597;28;20415;-89
2023/01/23 11:41:19;;;;;;;3.88;3.47;;;5.40;83.00;;;;;;5066264;28;20415;-89
2023/01/23 11:43:44;;;;;;;3.90;3.60;;;5.40;83.40;;;;;;5051054;28;20431;-90
2023/01/23 11:46:17;;;;;;;2.40;2.10;;;5.40;85.50;;;;;;5066602;28;20465;-89
2023/01/23 11:49:25;;;;;;;2.83;2.60;;;5.40;84.00;;;;;;5051534;28;20404;-91
2023/01/23 11:52:23;;;;;;;3.30;3.00;;;5.40;84.30;;;;;;5067441;28;21220;-89
2023/01/23 11:55:26;;;;;;;3.40;2.70;;;5.40;82.30;;;;;;5066455;28;20423;-88
2023/01/23 11:58:13;;;;;;;2.20;1.90;;;5.50;84.00;;;;;;5067303;28;20422;-90
2023/01/23 12:01:00;;;;;;;3.10;2.80;;;5.40;82.40;;;;;;5067453;28;21031;-89
2023/01/23 12:04:03;;;;;;;3.90;3.60;;;5.40;83.30;;;;;;5049573;28;20454;-88
2023/01/23 12:06:51;;;;;;;4.70;4.25;;;5.50;84.70;;;;;;5067063;28;20593;-90
2023/01/23 12:09:19;;;;;;;4.68;4.28;;;5.50;83.30;;;;;;5067258;28;20420;-89
2023/01/23 12:12:02;;;;;;;4.25;3.85;;;5.50;85.30;;;;;;5066564;28;20399;-90
2023/01/23 12:14:39;;;;;;;4.95;4.43;;;5.60;85.70;;;;;;5051261;28;20478;-89
2023/01/23 12:17:11;;;;;;;4.90;4.50;;;5.50;86.00;;;;;;5049549;28;20463;-90
2023/01/23 12:19:45;;;;;;;4.57;4.18;;;5.50;85.80;;;;;;5050501;28;20899;-91
2023/01/23 12:22:16;;;;;;;6.13;5.47;;;5.50;84.60;;;;;;5067018;28;20957;-90
2023/01/23 12:24:55;;;;;;;5.20;4.80;;;5.40;87.30;;;;;;5049470;28;20872;-88
2023/01/23 12:27:44;;;;;;;5.35;4.85;;;5.40;85.10;;;;;;5050672;28;20412;-89
2023/01/23 12:30:15;;;;;;;5.40;4.90;;;5.40;83.50;;;;;;5050239;28;20465;-89
2023/01/23 12:32:48;;;;;;;4.70;4.30;;;5.40;85.10;;;;;;5049359;28;20412;-89
2023/01/23 12:35:13;;;;;;;5.80;5.30;;;5.30;84.30;;;;;;5050004;28;20416;-89
2023/01/23 12:38:13;;;;;;;5.77;5.27;;;5.50;84.50;;;;;;5049118;28;20415;-89
2023/01/23 12:40:54;;;;;;;5.18;4.78;;;5.30;86.00;;;;;;5028270;28;20412;-90
2023/01/23 12:43:49;;;;;;;5.70;5.10;;;5.50;85.90;;;;;;5066355;28;20473;-90
2023/01/23 12:46:24;;;;;;;4.93;4.53;;;5.30;87.00;;;;;;5049551;28;20407;-90
2023/01/23 12:49:05;;;;;;;5.20;4.80;;;5.20;85.60;;;;;;5066855;28;20411;-89
2023/01/23 12:51:37;;;;;;;6.50;5.90;;;5.30;86.90;;;;;;5065672;28;20553;-90
2023/01/23 12:54:09;;;;;;;5.30;4.90;;;5.30;88.00;;;;;;5065454;28;20412;-90
2023/01/23 12:56:38;;;;;;;5.85;5.32;;;5.30;85.60;;;;;;5049449;28;20415;-90
2023/01/23 12:59:23;;;;;;;5.18;4.70;;;5.30;85.60;;;;;;5049110;28;20415;-89
2023/01/23 13:01:58;;;;;;;6.30;5.70;;;5.30;85.60;;;;;;5066784;28;20439;-91
2023/01/23 13:04:53;;;;;;;6.10;5.60;;;5.30;88.10;;;;;;5048373;28;20442;-89